Time;durP1;ratioP1;P1;durP2;ratioP2;P2;SDS_P1;SDS_P2;PMS_P1;PMS_P2;Temp;Humidity;BMP_temperature;BMP_pressure;BME280_temperature;BME280_humidity;BME280_pressure;Samples;Min_cycle;Max_cycle;Signal;HPM_P1;HPM_P2
2023/01/21 00:01:00;;;;;;;5.40;3.87;;;;;;;5.63;86.92;96569.03;4988200;28;20186;-71
2023/01/21 00:03:27;;;;;;;7.50;4.57;;;;;;;5.61;86.09;96564.84;4986339;28;20202;-70
2023/01/21 00:05:54;;;;;;;7.30;4.60;;;;;;;5.62;85.90;96567.38;4987149;28;20221;-72
2023/01/21 00:08:21;;;;;;;4.67;4.10;;;;;;;5.49;85.57;96562.69;4987123;28;20204;-71
2023/01/21 00:10:48;;;;;;;6.10;4.00;;;;;;;5.41;86.97;96554.41;4985390;28;20193;-71
2023/01/21 00:13:15;;;;;;;4.13;3.70;;;;;;;5.42;86.54;96554.34;4986956;28;20185;-81
2023/01/21 00:15:42;;;;;;;6.77;4.73;;;;;;;5.45;86.03;96556.81;4985141;28;20186;-72
2023/01/21 00:18:09;;;;;;;4.97;4.43;;;;;;;5.43;85.90;96568.03;4987883;28;20808;-82
2023/01/21 00:20:36;;;;;;;5.60;4.70;;;;;;;5.47;87.02;96579.88;4987394;28;20194;-71
2023/01/21 00:23:03;;;;;;;5.67;4.37;;;;;;;5.56;86.70;96579.56;4986081;28;20373;-73
2023/01/21 00:25:30;;;;;;;6.37;4.87;;;;;;;5.62;86.93;96579.38;4986555;28;20720;-72
2023/01/21 00:27:58;;;;;;;7.73;4.50;;;;;;;5.69;86.92;96589.38;4986474;28;20194;-72
2023/01/21 00:30:26;;;;;;;8.07;5.07;;;;;;;5.60;87.04;96587.13;5019255;28;20192;-71
2023/01/21 00:32:53;;;;;;;6.40;4.67;;;;;;;5.54;87.12;96574.47;4969031;28;20600;-72
2023/01/21 00:35:20;;;;;;;6.87;5.30;;;;;;;5.59;86.13;96590.56;4986627;28;20212;-72
2023/01/21 00:37:50;;;;;;;6.83;5.20;;;;;;;5.43;85.93;96598.84;4986788;28;20237;-72
2023/01/21 00:40:17;;;;;;;6.50;5.20;;;;;;;5.41;85.08;96592.91;4986212;28;20201;-72
2023/01/21 00:42:44;;;;;;;6.77;5.33;;;;;;;5.32;85.41;96575.22;4987791;28;20249;-71
2023/01/21 00:45:11;;;;;;;8.37;6.07;;;;;;;5.20;85.56;96571.34;4985017;28;20328;-72
2023/01/21 00:47:38;;;;;;;7.77;4.87;;;;;;;5.24;85.91;96577.22;4987785;28;20195;-72
2023/01/21 00:50:06;;;;;;;9.57;6.17;;;;;;;5.01;86.48;96589.97;4986237;28;20625;-72
2023/01/21 00:52:33;;;;;;;10.87;6.60;;;;;;;5.03;87.34;96581.28;4987932;28;20188;-74
2023/01/21 00:55:00;;;;;;;6.47;4.87;;;;;;;4.88;86.21;96590.31;4985227;28;20196;-79
2023/01/21 00:57:28;;;;;;;6.40;4.53;;;;;;;4.88;87.30;96594.63;4987393;28;20657;-71
2023/01/21 00:59:56;;;;;;;8.37;5.67;;;;;;;4.60;88.16;96596.31;4989647;28;20249;-71
2023/01/21 01:02:23;;;;;;;5.50;4.30;;;;;;;4.62;88.59;96594.53;4988619;28;20711;-74
2023/01/21 01:04:50;;;;;;;8.63;5.20;;;;;;;4.63;88.70;96599.66;4989919;28;20227;-75
2023/01/21 01:07:16;;;;;;;7.87;5.77;;;;;;;4.50;88.64;96613.69;4989624;28;20743;-72
2023/01/21 01:09:43;;;;;;;7.37;5.20;;;;;;;4.28;90.14;96606.66;4989832;28;20247;-76
2023/01/21 01:12:10;;;;;;;8.00;6.30;;;;;;;4.28;90.68;96612.66;4989749;28;20198;-82
2023/01/21 01:14:37;;;;;;;8.70;6.50;;;;;;;4.36;89.82;96618.38;4990831;28;20193;-72
2023/01/21 01:17:04;;;;;;;9.63;5.47;;;;;;;4.49;90.09;96622.25;4972861;28;20212;-72
2023/01/21 01:19:31;;;;;;;7.13;5.67;;;;;;;4.47;89.89;96620.66;4989732;28;20228;-76
2023/01/21 01:21:58;;;;;;;7.37;5.93;;;;;;;4.31;89.95;96607.41;4990831;28;20185;-75
2023/01/21 01:24:25;;;;;;;9.17;6.33;;;;;;;4.27;90.04;96604.97;4989265;28;20280;-72
2023/01/21 01:26:52;;;;;;;8.47;6.10;;;;;;;4.27;90.97;96605.81;4989468;28;20315;-72
2023/01/21 01:29:18;;;;;;;9.87;6.60;;;;;;;4.50;89.95;96616.28;4989065;28;20582;-76
2023/01/21 01:31:45;;;;;;;6.80;5.30;;;;;;;4.57;89.51;96615.22;4990710;28;20295;-77
2023/01/21 01:34:12;;;;;;;8.93;5.70;;;;;;;4.65;89.54;96610.69;4989863;28;20742;-72
2023/01/21 01:36:39;;;;;;;9.10;5.80;;;;;;;4.86;89.05;96609.22;4989788;28;20200;-77
2023/01/21 01:39:06;;;;;;;7.83;5.43;;;;;;;4.65;88.63;96595.31;4990438;28;20199;-71
2023/01/21 01:41:34;;;;;;;7.97;5.77;;;;;;;4.56;88.13;96600.72;4989005;28;20223;-81
2023/01/21 01:44:04;;;;;;;8.00;5.53;;;;;;;4.48;88.27;96594.97;4988953;28;20266;-70
2023/01/21 01:46:35;;;;;;;8.07;5.60;;;;;;;4.44;88.19;96585.69;4971491;28;20266;-75
2023/01/21 01:49:20;;;;;;;7.77;5.93;;;;;;;4.51;88.59;96588.91;4990538;28;20595;-79
2023/01/21 01:51:50;;;;;;;6.30;4.80;;;;;;;4.53;89.04;96593.13;5021315;28;20192;-71
2023/01/21 01:54:22;;;;;;;6.80;5.40;;;;;;;4.60;87.62;96584.34;4989050;28;20219;-76
2023/01/21 01:56:54;;;;;;;7.47;5.23;;;;;;;4.47;88.05;96592.44;4990238;28;20200;-70
2023/01/21 01:59:21;;;;;;;7.37;5.43;;;;;;;4.40;88.47;96586.66;4988905;28;20248;-72
2023/01/21 02:01:48;;;;;;;7.93;5.60;;;;;;;4.27;88.70;96579.34;5021848;28;20205;-81
2023/01/21 02:04:22;;;;;;;9.30;5.93;;;;;;;4.29;89.01;96582.69;4988761;28;20758;-72
2023/01/21 02:06:51;;;;;;;9.00;6.30;;;;;;;4.27;89.05;96582.75;4989479;28;20260;-71
2023/01/21 02:09:18;;;;;;;7.40;6.10;;;;;;;4.34;88.77;96591.13;4989366;28;20186;-72
2023/01/21 02:11:45;;;;;;;9.17;6.93;;;;;;;4.36;88.60;96589.34;4988253;28;20222;-71
2023/01/21 02:14:12;;;;;;;10.60;6.00;;;;;;;4.52;88.32;96583.72;4989865;28;20723;-72
2023/01/21 02:16:55;;;;;;;6.87;5.37;;;;;;;4.40;87.44;96576.41;4987282;28;20192;-80
2023/01/21 02:19:46;;;;;;;8.77;5.73;;;;;;;4.30;88.58;96575.00;4989493;28;20236;-75
2023/01/21 02:22:35;;;;;;;11.23;6.47;;;;;;;4.37;88.83;96578.22;4989693;28;20204;-74
2023/01/21 02:25:40;;;;;;;9.63;6.80;;;;;;;4.55;88.06;96587.94;4982947;28;20276;-71
2023/01/21 02:28:17;;;;;;;8.17;6.40;;;;;;;4.69;87.18;96586.66;4987926;28;20201;-74
2023/01/21 02:31:10;;;;;;;7.97;5.30;;;;;;;4.64;86.54;96583.38;4998299;28;20249;-71
2023/01/21 02:34:03;;;;;;;7.77;5.70;;;;;;;4.67;86.43;96582.44;4994014;28;20204;-70
2023/01/21 02:36:40;;;;;;;10.83;6.43;;;;;;;4.75;86.78;96589.03;5007835;28;20667;-76
2023/01/21 02:39:21;;;;;;;10.37;6.53;;;;;;;4.76;86.27;96589.88;4974554;28;20220;-71
2023/01/21 02:42:04;;;;;;;9.73;6.80;;;;;;;4.72;86.30;96568.59;4990487;28;20207;-78
2023/01/21 02:44:41;;;;;;;25.07;15.00;;;;;;;4.61;85.78;96545.00;5008947;28;20345;-71
2023/01/21 02:47:43;;;;;;;29.67;15.73;;;;;;;4.68;84.58;96582.38;5005901;28;20308;-72
2023/01/21 02:50:27;;;;;;;16.83;11.10;;;;;;;4.62;85.81;96582.56;5008257;28;20195;-73
2023/01/21 02:53:00;;;;;;;14.23;9.00;;;;;;;4.66;86.99;96579.03;5008671;28;20188;-79
2023/01/21 02:55:31;;;;;;;10.93;7.90;;;;;;;4.79;86.07;96590.59;5005956;28;20268;-78
2023/01/21 02:58:03;;;;;;;13.37;8.67;;;;;;;4.64;85.57;96587.66;5008593;28;20698;-73
2023/01/21 03:00:48;;;;;;;27.63;20.47;;;;;;;4.68;86.00;96602.06;4989655;28;20697;-71
2023/01/21 03:03:35;;;;;;;36.37;27.00;;;;;;;4.80;86.06;96599.16;5007692;28;20194;-72
2023/01/21 03:06:09;;;;;;;26.00;19.67;;;;;;;4.74;85.22;96589.88;4977234;28;20244;-71
2023/01/21 03:08:38;;;;;;;32.93;24.27;;;;;;;4.74;86.57;96591.63;5005547;28;20186;-76
2023/01/21 03:11:14;;;;;;;25.97;18.60;;;;;;;4.44;86.64;96565.19;5008380;28;20219;-73
2023/01/21 03:16:56;;;;;;;17.57;13.77;;;;;;;4.43;87.69;96583.19;5006754;28;20275;-73
2023/01/21 03:20:05;;;;;;;42.37;27.50;;;;;;;4.33;87.90;96558.69;5007011;28;20251;-71
2023/01/21 03:22:35;;;;;;;56.63;34.27;;;;;;;4.25;88.67;96574.28;5005946;28;20253;-75
2023/01/21 03:25:04;;;;;;;26.30;18.47;;;;;;;4.17;88.55;96565.13;5005344;28;20196;-72
2023/01/21 03:27:34;;;;;;;15.67;10.70;;;;;;;4.21;89.19;96570.13;5008016;28;20951;-79
2023/01/21 03:30:15;;;;;;;11.57;7.30;;;;;;;4.26;88.63;96573.41;5005069;28;20221;-74
2023/01/21 03:32:48;;;;;;;10.47;7.03;;;;;;;4.17;87.47;96560.84;5006507;28;20200;-80
2023/01/21 03:35:22;;;;;;;9.40;6.90;;;;;;;4.42;88.02;96574.63;5005455;28;20223;-77
2023/01/21 03:38:11;;;;;;;9.97;6.30;;;;;;;4.51;86.87;96579.50;5007340;28;20208;-72
2023/01/21 03:40:49;;;;;;;16.07;7.60;;;;;;;4.40;86.42;96578.13;5006477;28;20196;-72
2023/01/21 03:43:16;;;;;;;14.17;9.97;;;;;;;4.53;85.46;96569.19;5006303;28;20254;-73
2023/01/21 03:46:44;;;;;;;13.47;9.27;;;;;;;4.61;86.98;96580.91;5006342;28;20619;-75
2023/01/21 03:49:48;;;;;;;13.53;9.63;;;;;;;4.78;85.74;96588.91;5000791;28;20195;-76
2023/01/21 03:53:09;;;;;;;8.93;6.43;;;;;;;4.90;86.99;96603.94;5007735;28;20719;-76
2023/01/21 03:56:29;;;;;;;7.53;5.50;;;;;;;4.90;86.00;96613.38;4989833;28;20188;-75
2023/01/21 03:59:50;;;;;;;5.93;4.73;;;;;;;4.73;85.32;96608.75;5005447;28;20196;-80
2023/01/21 04:02:31;;;;;;;6.93;4.87;;;;;;;4.85;85.91;96608.38;5010263;28;20203;-81
2023/01/21 04:04:58;;;;;;;15.47;11.40;;;;;;;4.76;85.68;96588.13;4993851;28;20650;-83
2023/01/21 04:07:25;;;;;;;18.83;14.67;;;;;;;4.60;85.90;96594.59;5006337;28;20668;-82
2023/01/21 04:09:52;;;;;;;13.87;9.47;;;;;;;4.41;86.17;96615.69;5006701;28;20201;-77
2023/01/21 04:12:20;;;;;;;12.93;9.50;;;;;;;4.34;87.58;96612.47;5007050;28;20851;-81
2023/01/21 04:14:46;;;;;;;12.47;7.30;;;;;;;4.26;87.61;96600.75;5006227;28;20226;-81
2023/01/21 04:17:13;;;;;;;23.17;14.00;;;;;;;4.09;88.58;96609.75;5006391;28;20194;-81
2023/01/21 04:19:40;;;;;;;20.23;13.70;;;;;;;4.29;89.22;96609.19;5006213;28;20229;-83
2023/01/21 04:22:07;;;;;;;13.93;9.23;;;;;;;4.26;89.65;96603.31;5005018;28;20625;-79
2023/01/21 04:24:34;;;;;;;16.70;10.80;;;;;;;4.38;88.84;96601.25;4990232;28;20259;-81
2023/01/21 04:27:01;;;;;;;37.63;20.33;;;;;;;4.48;89.07;96619.75;5006474;28;20657;-83
2023/01/21 04:29:28;;;;;;;75.33;39.70;;;;;;;4.48;88.53;96622.31;5007281;28;20387;-77
2023/01/21 04:31:55;;;;;;;75.60;36.33;;;;;;;4.50;89.21;96629.09;5007258;28;20691;-82
2023/01/21 04:34:22;;;;;;;53.53;28.83;;;;;;;4.54;89.42;96612.72;5009053;28;20657;-81
2023/01/21 04:36:49;;;;;;;32.20;20.73;;;;;;;4.46;89.13;96601.00;5011560;28;20331;-74
2023/01/21 04:39:16;;;;;;;15.57;9.43;;;;;;;4.53;90.05;96621.31;5008427;28;20645;-81
2023/01/21 04:41:43;;;;;;;21.50;8.87;;;;;;;4.59;89.54;96618.56;5011158;28;20660;-81
2023/01/21 04:44:10;;;;;;;15.20;8.60;;;;;;;4.61;90.23;96613.41;5009845;28;21019;-77
2023/01/21 04:46:37;;;;;;;22.73;11.33;;;;;;;4.59;90.79;96610.88;5010886;28;20931;-82
2023/01/21 04:49:04;;;;;;;21.23;12.80;;;;;;;4.72;89.56;96612.19;5010482;28;20248;-81
2023/01/21 04:51:31;;;;;;;25.60;15.57;;;;;;;4.93;89.25;96633.78;5010156;28;20181;-82
2023/01/21 04:53:58;;;;;;;30.20;17.90;;;;;;;4.92;90.26;96627.81;5010995;28;20238;-81
2023/01/21 04:56:25;;;;;;;32.60;17.37;;;;;;;4.94;90.08;96622.66;5009253;28;20307;-71
2023/01/21 04:58:52;;;;;;;26.83;15.57;;;;;;;4.88;90.59;96613.41;5009631;28;20212;-77
2023/01/21 05:01:19;;;;;;;17.93;11.77;;;;;;;5.13;89.44;96640.91;5007924;28;20284;-77
2023/01/21 05:03:46;;;;;;;21.83;10.83;;;;;;;5.01;89.02;96651.53;5010777;28;20202;-75
2023/01/21 05:06:13;;;;;;;23.10;10.73;;;;;;;4.97;89.63;96650.75;5008160;28;20232;-76
2023/01/21 05:08:41;;;;;;;38.13;18.03;;;;;;;4.63;89.57;96645.81;5009867;28;20275;-80
2023/01/21 05:11:09;;;;;;;51.53;23.77;;;;;;;4.60;91.01;96671.53;5010170;28;20190;-72
2023/01/21 05:13:36;;;;;;;37.33;16.80;;;;;;;4.50;91.55;96667.53;5009004;28;20190;-82
2023/01/21 05:16:07;;;;;;;32.37;14.90;;;;;;;4.55;92.03;96670.84;5010356;28;20222;-82
2023/01/21 05:18:37;;;;;;;22.47;11.40;;;;;;;4.47;93.20;96690.69;5008775;28;20249;-79
2023/01/21 05:21:04;;;;;;;27.50;11.60;;;;;;;4.56;92.62;96690.44;5010085;28;20679;-79
2023/01/21 05:23:32;;;;;;;36.60;15.50;;;;;;;4.47;92.63;96679.63;5008092;28;20193;-72
2023/01/21 05:25:59;;;;;;;37.03;12.47;;;;;;;4.39;91.95;96696.94;5009252;28;20219;-77
2023/01/21 05:28:26;;;;;;;71.57;23.40;;;;;;;4.15;93.05;96693.28;5009932;28;20245;-80
2023/01/21 05:30:53;;;;;;;51.60;18.87;;;;;;;3.85;94.02;96678.72;5008719;28;20636;-75
2023/01/21 05:33:25;;;;;;;50.40;11.00;;;;;;;3.61;95.70;96702.34;5008539;28;20766;-79
2023/01/21 05:35:52;;;;;;;38.10;13.77;;;;;;;3.66;96.96;96687.72;5007024;28;20290;-73
2023/01/21 05:38:19;;;;;;;33.87;12.80;;;;;;;3.85;97.55;96709.44;5008505;28;20605;-74
2023/01/21 05:40:46;;;;;;;65.00;14.03;;;;;;;3.88;96.93;96704.22;5007362;28;20199;-76
2023/01/21 05:43:12;;;;;;;38.63;9.13;;;;;;;3.90;97.39;96707.59;5009119;28;20212;-76
2023/01/21 05:45:39;;;;;;;44.13;11.13;;;;;;;4.02;97.66;96705.56;5006809;28;20199;-81
2023/01/21 05:48:06;;;;;;;31.40;9.20;;;;;;;4.00;96.60;96693.66;5008113;28;20754;-79
2023/01/21 05:50:37;;;;;;;26.43;8.20;;;;;;;3.91;97.61;96701.59;5008281;28;20258;-80
2023/01/21 05:53:04;;;;;;;20.73;7.50;;;;;;;4.01;97.57;96711.59;5007871;28;20650;-74
2023/01/21 05:55:31;;;;;;;24.97;7.70;;;;;;;3.96;97.50;96703.16;5009641;28;20184;-81
2023/01/21 05:57:58;;;;;;;17.60;7.23;;;;;;;4.13;97.37;96713.81;5006773;28;20819;-77
2023/01/21 06:00:25;;;;;;;21.03;8.27;;;;;;;4.26;97.11;96710.94;5008689;28;20192;-76
2023/01/21 06:02:52;;;;;;;15.43;7.47;;;;;;;4.29;97.26;96706.56;5009830;28;20193;-75
2023/01/21 06:05:19;;;;;;;18.67;7.80;;;;;;;4.30;97.11;96703.13;5008728;28;20571;-71
2023/01/21 06:07:46;;;;;;;24.57;9.43;;;;;;;4.42;96.14;96714.78;5010398;28;20218;-70
2023/01/21 06:10:13;;;;;;;17.67;9.10;;;;;;;4.64;96.49;96729.53;5003314;28;20220;-79
2023/01/21 06:12:40;;;;;;;15.13;6.90;;;;;;;4.73;95.29;96728.44;4994034;28;20635;-76
2023/01/21 06:15:08;;;;;;;17.37;8.43;;;;;;;4.83;94.82;96733.28;4999374;28;20209;-75
2023/01/21 06:17:38;;;;;;;32.13;14.77;;;;;;;4.66;93.71;96732.88;4999237;28;20202;-75
2023/01/21 06:20:07;;;;;;;22.07;11.33;;;;;;;4.58;94.53;96734.84;5001850;28;20268;-77
2023/01/21 06:22:34;;;;;;;19.60;9.63;;;;;;;4.63;95.67;96740.69;5008211;28;20202;-73
2023/01/21 06:25:01;;;;;;;23.00;9.40;;;;;;;4.53;94.75;96752.06;4992170;28;20204;-73
2023/01/21 06:27:29;;;;;;;23.93;10.03;;;;;;;4.71;94.97;96756.69;4996746;28;20231;-77
2023/01/21 06:29:55;;;;;;;22.23;10.23;;;;;;;4.83;95.24;96751.22;4988462;28;20207;-71
2023/01/21 06:32:22;;;;;;;31.67;9.67;;;;;;;4.74;94.48;96733.50;4987956;28;20626;-76
2023/01/21 06:34:49;;;;;;;28.10;9.53;;;;;;;4.39;94.06;96751.56;4989419;28;20189;-73
2023/01/21 06:37:16;;;;;;;26.63;10.73;;;;;;;4.44;95.67;96756.59;4971259;28;20202;-74
2023/01/21 06:39:43;;;;;;;352.60;92.40;;;;;;;4.55;95.76;96758.00;4999129;28;20188;-74
2023/01/21 06:42:10;;;;;;;1764.60;490.53;;;;;;;4.33;94.89;96759.44;5029509;28;20205;-80
2023/01/21 06:44:37;;;;;;;1306.50;385.70;;;;;;;4.18;96.07;96757.28;4992617;28;20259;-74
2023/01/21 06:47:04;;;;;;;925.53;228.33;;;;;;;4.05;96.34;96732.84;5008456;28;20219;-79
2023/01/21 06:49:31;;;;;;;32.93;13.70;;;;;;;4.12;97.19;96754.88;5005776;28;20239;-79
2023/01/21 06:51:58;;;;;;;23.53;9.53;;;;;;;4.17;96.49;96747.91;5007433;28;20673;-76
2023/01/21 06:54:25;;;;;;;21.37;9.67;;;;;;;4.05;95.38;96732.84;5006452;28;20286;-81
2023/01/21 06:56:56;;;;;;;21.40;9.70;;;;;;;3.99;96.06;96738.13;4990542;28;20245;-82
2023/01/21 06:59:24;;;;;;;23.03;12.07;;;;;;;4.30;96.94;96738.16;4992128;28;20317;-80
2023/01/21 07:01:57;;;;;;;28.03;12.30;;;;;;;4.43;96.17;96719.03;4975049;28;20247;-72
2023/01/21 07:04:27;;;;;;;28.20;12.47;;;;;;;4.63;95.91;96752.66;5008470;28;20740;-76
2023/01/21 07:06:54;;;;;;;26.57;11.97;;;;;;;4.70;95.24;96749.03;5005990;28;20216;-80
2023/01/21 07:09:25;;;;;;;25.97;13.17;;;;;;;4.79;94.23;96746.22;5006833;28;20188;-74
2023/01/21 07:11:51;;;;;;;51.93;18.30;;;;;;;4.89;94.07;96750.22;5004671;28;20197;-76
2023/01/21 07:14:19;;;;;;;35.00;16.67;;;;;;;4.87;93.77;96740.00;4991237;28;20200;-82
2023/01/21 07:16:45;;;;;;;39.70;18.47;;;;;;;5.15;93.24;96752.88;5006539;28;20695;-75
2023/01/21 07:19:13;;;;;;;43.47;19.27;;;;;;;5.23;93.44;96768.91;5006807;28;20657;-81
2023/01/21 07:21:40;;;;;;;43.17;19.23;;;;;;;5.28;92.97;96754.19;5008417;28;20249;-76
2023/01/21 07:24:08;;;;;;;45.67;19.13;;;;;;;5.34;93.59;96763.41;5006662;28;20201;-79
2023/01/21 07:26:36;;;;;;;35.77;15.23;;;;;;;5.44;93.41;96759.72;5007758;28;20617;-72
2023/01/21 07:29:08;;;;;;;27.00;13.67;;;;;;;5.42;93.01;96756.38;5007274;28;20258;-75
2023/01/21 07:31:35;;;;;;;34.57;14.37;;;;;;;5.46;93.00;96763.09;5005361;28;20553;-73
2023/01/21 07:34:02;;;;;;;32.17;13.43;;;;;;;5.39;92.49;96766.72;5003456;28;20196;-77
2023/01/21 07:36:31;;;;;;;32.83;13.63;;;;;;;5.29;93.07;96761.03;5001684;28;20285;-79
2023/01/21 07:39:00;;;;;;;29.80;14.43;;;;;;;5.36;93.41;96771.91;4986845;28;20198;-80
2023/01/21 07:41:27;;;;;;;36.93;12.23;;;;;;;5.26;92.44;96747.41;4995904;28;20210;-81
2023/01/21 07:43:54;;;;;;;23.87;12.20;;;;;;;5.46;92.78;96757.94;5040298;28;20609;-76
2023/01/21 07:46:22;;;;;;;21.23;11.07;;;;;;;5.45;91.82;96772.50;5005716;28;20197;-73
2023/01/21 07:48:50;;;;;;;24.23;11.43;;;;;;;5.32;92.91;96793.44;4989786;28;20300;-72
2023/01/21 07:51:19;;;;;;;29.63;12.50;;;;;;;5.50;92.62;96795.50;5004803;28;20284;-74
2023/01/21 07:53:46;;;;;;;19.53;10.10;;;;;;;5.51;91.89;96792.88;4999839;28;20580;-77
2023/01/21 07:56:15;;;;;;;32.03;14.57;;;;;;;5.49;92.21;96773.25;4996498;28;20289;-80
2023/01/21 07:58:42;;;;;;;28.70;12.93;;;;;;;5.42;93.04;96774.34;5004508;28;20212;-73
2023/01/21 08:01:09;;;;;;;26.10;12.23;;;;;;;5.34;92.70;96789.09;5005870;28;20200;-73
2023/01/21 08:03:36;;;;;;;21.23;11.47;;;;;;;5.55;91.59;96793.59;5004712;28;20200;-73
2023/01/21 08:06:05;;;;;;;24.87;13.07;;;;;;;5.44;92.52;96775.13;5005512;28;20213;-72
2023/01/21 08:08:32;;;;;;;25.03;11.63;;;;;;;5.45;91.80;96762.25;5006940;28;20315;-71
2023/01/21 08:10:59;;;;;;;16.43;8.97;;;;;;;5.30;92.25;96759.25;5010104;28;20181;-72
2023/01/21 08:13:26;;;;;;;16.63;8.70;;;;;;;5.34;92.13;96763.41;5009983;28;20707;-78
2023/01/21 08:15:55;;;;;;;20.60;11.33;;;;;;;5.60;91.99;96777.19;5008323;28;20301;-78
2023/01/21 08:18:23;;;;;;;18.87;10.37;;;;;;;5.86;90.75;96780.69;5010994;28;20228;-72
2023/01/21 08:20:55;;;;;;;14.40;9.17;;;;;;;5.96;89.18;96770.06;5008725;28;20223;-73
2023/01/21 08:23:22;;;;;;;14.07;9.67;;;;;;;5.94;88.81;96787.28;5010712;28;20210;-74
2023/01/21 08:25:49;;;;;;;17.37;9.30;;;;;;;6.01;89.40;96772.50;5009852;28;20228;-74
2023/01/21 08:28:16;;;;;;;15.60;9.13;;;;;;;5.88;88.90;96776.34;5009744;28;20222;-77
2023/01/21 08:30:43;;;;;;;15.13;9.20;;;;;;;5.61;88.06;96767.72;4992903;28;20224;-72
2023/01/21 08:33:11;;;;;;;21.03;10.87;;;;;;;6.22;88.03;96789.81;5009076;28;20646;-70
2023/01/21 08:35:38;;;;;;;18.23;9.97;;;;;;;6.08;86.76;96784.28;5009299;28;20706;-71
2023/01/21 08:38:06;;;;;;;15.33;11.23;;;;;;;5.68;88.81;96771.81;5009021;28;20204;-76
2023/01/21 08:40:34;;;;;;;20.00;11.57;;;;;;;6.10;87.94;96793.59;4995173;28;20191;-76
2023/01/21 08:43:02;;;;;;;22.43;12.87;;;;;;;5.89;88.07;96781.47;4994039;28;20656;-76
2023/01/21 08:45:30;;;;;;;21.87;13.10;;;;;;;6.03;88.87;96776.72;5010345;28;20325;-77
2023/01/21 08:47:57;;;;;;;22.80;13.67;;;;;;;6.44;87.10;96768.47;5010973;28;20257;-75
2023/01/21 08:50:24;;;;;;;24.47;15.77;;;;;;;6.43;86.85;96746.19;5008756;28;20190;-77
2023/01/21 08:52:55;;;;;;;28.10;16.23;;;;;;;6.49;87.08;96774.28;5011003;28;20205;-75
2023/01/21 08:55:27;;;;;;;25.53;16.03;;;;;;;6.67;86.96;96782.28;5008465;28;20250;-73
2023/01/21 08:57:55;;;;;;;26.53;15.37;;;;;;;6.85;85.98;96751.59;5010149;28;20273;-78
2023/01/21 09:00:22;;;;;;;22.87;12.93;;;;;;;7.16;84.32;96744.44;5010208;28;20260;-75
2023/01/21 09:02:50;;;;;;;30.33;17.20;;;;;;;7.04;84.58;96739.75;4991850;28;20294;-72
2023/01/21 09:05:18;;;;;;;29.17;16.53;;;;;;;7.02;84.96;96725.25;5008912;28;20225;-74
2023/01/21 09:07:45;;;;;;;32.90;18.53;;;;;;;6.87;86.17;96734.34;5008525;28;20269;-73
2023/01/21 09:10:59;;;;;;;27.17;14.70;;;;;;;7.08;86.45;96731.00;5008810;28;20917;-75
2023/01/21 09:13:05;;;;;;;26.73;14.40;;;;;;;7.16;85.63;96741.00;5007736;28;20198;-74
2023/01/21 09:15:40;;;;;;;20.50;12.07;;;;;;;7.16;85.62;96744.44;5009386;28;20419;-72
2023/01/21 09:18:07;;;;;;;29.27;13.97;;;;;;;7.01;86.32;96739.84;5008402;28;20225;-72
2023/01/21 09:20:34;;;;;;;19.90;12.10;;;;;;;6.85;86.35;96731.00;5007021;28;20749;-72
2023/01/21 09:23:22;;;;;;;21.50;12.37;;;;;;;6.86;87.51;96714.66;4992117;28;20198;-75
2023/01/21 09:25:52;;;;;;;24.07;13.37;;;;;;;7.01;86.86;96731.25;5008558;28;20301;-72
2023/01/21 09:28:20;;;;;;;17.80;10.00;;;;;;;6.92;86.65;96717.03;5009038;28;20229;-80
2023/01/21 09:30:47;;;;;;;16.13;10.63;;;;;;;6.87;87.32;96734.34;5009629;28;20186;-84
2023/01/21 09:33:54;;;;;;;19.57;9.83;;;;;;;6.80;88.43;96714.06;5008290;28;20193;-72
2023/01/21 09:37:15;;;;;;;18.20;10.03;;;;;;;7.08;88.55;96722.44;5006982;28;20220;-76
2023/01/21 09:40:35;;;;;;;17.50;9.40;;;;;;;6.79;88.32;96684.06;5009331;28;20191;-78
2023/01/21 09:44:02;;;;;;;18.73;10.83;;;;;;;6.82;89.32;96701.97;4991778;28;20190;-72
2023/01/21 09:47:28;;;;;;;17.37;10.77;;;;;;;6.84;88.64;96705.31;5005398;28;20247;-74
2023/01/21 09:50:49;;;;;;;20.07;11.53;;;;;;;7.09;89.33;96700.97;5008296;28;20249;-71
2023/01/21 09:54:22;;;;;;;15.30;9.70;;;;;;;6.95;90.03;96709.16;5008743;28;20183;-72
2023/01/21 09:57:25;;;;;;;21.03;12.30;;;;;;;7.12;89.89;96706.81;5006475;28;20198;-72
2023/01/21 10:00:25;;;;;;;19.03;10.83;;;;;;;7.03;89.28;96711.47;5007543;28;20220;-82
2023/01/21 10:03:24;;;;;;;22.00;13.23;;;;;;;7.23;90.35;96709.81;5008041;28;20194;-71
2023/01/21 10:06:12;;;;;;;19.63;12.70;;;;;;;7.26;89.53;96708.88;5008835;28;20281;-75
2023/01/21 10:09:08;;;;;;;27.83;12.93;;;;;;;7.24;90.42;96710.66;5007125;28;20676;-74
2023/01/21 10:11:51;;;;;;;20.27;12.13;;;;;;;7.25;90.59;96699.47;5007607;28;20316;-76
2023/01/21 10:15:17;;;;;;;22.27;14.30;;;;;;;7.11;90.88;96710.28;5008501;28;20666;-75
2023/01/21 10:18:38;;;;;;;30.57;16.20;;;;;;;7.18;90.88;96705.75;5005410;28;20237;-76
2023/01/21 10:21:45;;;;;;;20.57;13.40;;;;;;;7.19;90.75;96702.28;5006921;28;20183;-74
2023/01/21 10:25:06;;;;;;;25.50;14.33;;;;;;;7.02;91.72;96696.91;5002788;28;20210;-76
2023/01/21 10:28:35;;;;;;;25.50;14.10;;;;;;;6.86;93.23;96691.47;5005203;28;20256;-74
2023/01/21 10:32:02;;;;;;;26.73;15.10;;;;;;;7.05;92.88;96682.19;5007469;28;20245;-73
2023/01/21 10:35:23;;;;;;;26.63;12.27;;;;;;;7.09;93.15;96680.38;5007691;28;20218;-78
2023/01/21 10:38:42;;;;;;;23.80;14.53;;;;;;;7.13;93.90;96672.44;4991051;28;20727;-75
2023/01/21 10:41:58;;;;;;;29.77;15.87;;;;;;;7.14;92.65;96666.41;5002074;28;20233;-78
2023/01/21 10:45:20;;;;;;;29.07;17.80;;;;;;;7.22;92.72;96666.09;5002659;28;20207;-74
2023/01/21 10:48:30;;;;;;;33.60;18.93;;;;;;;7.42;92.27;96668.72;4990427;28;20287;-79
2023/01/21 10:51:25;;;;;;;35.57;19.53;;;;;;;7.50;92.35;96658.16;5006068;28;20588;-75
2023/01/21 10:53:58;;;;;;;38.23;20.80;;;;;;;7.49;92.63;96659.88;5006961;28;20600;-78
2023/01/21 10:56:40;;;;;;;28.00;17.90;;;;;;;7.39;92.10;96656.84;5005165;28;20730;-74
2023/01/21 10:59:16;;;;;;;33.17;17.63;;;;;;;7.64;92.10;96656.69;4986818;28;20290;-72
2023/01/21 11:01:49;;;;;;;33.77;17.07;;;;;;;7.71;91.60;96645.22;4988246;28;20543;-76
2023/01/21 11:04:25;;;;;;;28.27;14.10;;;;;;;7.69;92.31;96641.88;5001957;28;20303;-74
2023/01/21 11:07:00;;;;;;;22.73;13.00;;;;;;;7.68;92.53;96644.50;4988063;28;20327;-77
2023/01/21 11:09:33;;;;;;;21.10;13.83;;;;;;;7.74;92.15;96641.69;5018159;28;20672;-77
2023/01/21 11:12:00;;;;;;;33.07;16.00;;;;;;;7.82;92.51;96643.06;4986608;28;20188;-73
2023/01/21 11:14:27;;;;;;;24.37;13.73;;;;;;;7.70;93.16;96638.41;5002698;28;20721;-75
2023/01/21 11:16:55;;;;;;;20.97;12.57;;;;;;;7.64;93.26;96633.50;4985666;28;20219;-73
2023/01/21 11:19:24;;;;;;;19.77;12.97;;;;;;;7.80;93.86;96647.44;5019157;28;20695;-74
2023/01/21 11:22:21;;;;;;;21.83;12.30;;;;;;;7.80;94.73;96644.00;4986968;28;20608;-75
2023/01/21 11:24:53;;;;;;;18.73;12.93;;;;;;;7.80;95.73;96634.53;4986810;28;20196;-79
2023/01/21 11:27:40;;;;;;;22.73;12.70;;;;;;;7.70;96.42;96633.25;5003526;28;20229;-78
2023/01/21 11:30:33;;;;;;;21.63;13.20;;;;;;;7.57;97.37;96615.75;4987264;28;20210;-77
2023/01/21 11:33:24;;;;;;;20.43;13.27;;;;;;;7.85;96.53;96642.91;4988339;28;20191;-72
2023/01/21 11:35:53;;;;;;;22.90;13.77;;;;;;;8.01;97.18;96640.56;4995598;28;20234;-72
2023/01/21 11:38:35;;;;;;;28.57;15.57;;;;;;;8.11;96.15;96642.69;5007196;28;20186;-73
2023/01/21 11:41:23;;;;;;;27.97;16.13;;;;;;;8.21;97.47;96640.53;5007418;28;20715;-76
2023/01/21 11:43:54;;;;;;;22.13;13.80;;;;;;;8.27;97.32;96639.47;5006152;28;20271;-74
2023/01/21 11:46:38;;;;;;;20.87;13.23;;;;;;;8.18;97.40;96607.97;5007721;28;20187;-80
2023/01/21 11:49:05;;;;;;;24.57;14.60;;;;;;;8.34;97.66;96609.91;5006832;28;20219;-73
2023/01/21 11:51:40;;;;;;;32.03;16.23;;;;;;;8.34;98.85;96602.19;5006747;28;20665;-74
2023/01/21 11:54:12;;;;;;;25.47;15.23;;;;;;;8.44;99.60;96590.56;5008000;28;20282;-76
2023/01/21 11:56:47;;;;;;;25.73;13.70;;;;;;;8.45;100.00;96592.25;5004446;28;20203;-75
2023/01/21 11:59:26;;;;;;;22.70;13.40;;;;;;;8.67;100.00;96598.09;5005840;28;20201;-73
2023/01/21 12:01:58;;;;;;;16.77;10.67;;;;;;;8.82;100.00;96605.16;5004808;28;20183;-73
2023/01/21 12:04:26;;;;;;;24.03;13.37;;;;;;;8.91;100.00;96602.13;5006900;28;20234;-79
2023/01/21 12:06:56;;;;;;;20.90;10.67;;;;;;;9.07;100.00;96605.69;5007270;28;20189;-76
2023/01/21 12:09:24;;;;;;;15.80;10.07;;;;;;;9.26;100.00;96608.22;5005789;28;20210;-79